Weather at Camrose Airport

Public forecast

Using degrees Celsius for public forecast. Weather courtesy of forecast.io.

Closest aviation weather report (METAR) to Camrose Airport

Closest report is Edmonton International Airport, 31.9 nm (59.1 km) WNW. Retrieved 2022/01/18 18:00 UTC (23 minutes ago):

CYEG 181800Z 36006KT 20SM FEW030 FEW075 FEW210 M23/M26 A3035 RMK SC1AC1CI1 SC TR AC TR CI TR SLP353

Closest aviation forecast (TAF) to Camrose Airport

Closest forecast is Edmonton International Airport, 31.9 nm (59.1 km) WNW. Retrieved 2022/01/18 18:42 UTC (0 seconds ago):

TAF CYEG 181740Z 1818/1918 31005KT P6SM FEW030 FEW080 FEW210 BECMG 1823/1824 VRB03KT BECMG 1904/1906 16005KT FM191200 15010KT P6SM SKC RMK NXT FCST BY 182100Z